Lu Verne, IA

12:32 PM CST on February 14, 2016 (GMT -0600)
Erin Township Trading Post | | Change Station
CLOSE
Current Station
Personal Weather Station
Location: Britt, IA
Elevation: 1228 ft
Nearby Weather Stations
Active Advisory: Winter Weather Advisory

Elev 1228 ft 43.04 °N, 93.85 °W | Updated 13 minutes ago

Overcast
Overcast
17.9 °F
Feels Like 5 °F
N
13.0
Wind Variable Wind from SE
Gusts 18.0 mph

Today
High -- | Low -- °F
--% Chance of Precip.
Yesterday
High -- | Low -- °F
Precip. -- in
Pressure 29.88 in
Visibility 3.0 miles
Clouds Scattered Clouds 1400 ft
Mostly Cloudy 2000 ft
Windchill 5 °F
Dew Point 15 °F
Humidity 89%
Rainfall 0.00 in
Snow Depth Not available.
7:15 AM 5:45 PM
Waxing Crescent, 44% visible
METAR KAXA 141815Z AUTO 15016KT 3SM BR SCT014 BKN020 M07/M09 A2988 RMK AO2
Pressure 29.88 in
Visibility 3.0 miles
Clouds Scattered Clouds 1400 ft
Mostly Cloudy 2000 ft
Windchill 5 °F
Dew Point 15 °F
Humidity 89%
Rainfall 0.00 in
Snow Depth Not available.
7:15 AM 5:45 PM
Waxing Crescent, 44% visible
METAR KAXA 141815Z AUTO 15016KT 3SM BR SCT014 BKN020 M07/M09 A2988 RMK AO2

10-Day Weather Forecast

Almanac

Astronomy

Feb. 14, 2016 Rise Set
Actual Time
Civil Twilight
Nautical Twilight
Astronomical Twilight
Moon
Length of Visible Light
Length of Day
Tomorrow will be .
, % of the Moon is Illuminated

Today's Extremes

State Highs State Lows

Community

WunderPhotos

Upload Photos

1,892,868 photos uploaded!

WunderBlog® & News

Nearby

Air Quality

  Air Quality AQ Index Pollutant
Not available.

Snow Depth

Station Depth Elevation

Earthquake Activity

City Distance Mag. Time & Date
Minimum magnitude displayed is 2.5.

Coastal Water Temperatures

Place Temperature

Stations

Nearby Weather Stations

Station Location Temp. Windchill Dew Point Humidity Wind Precip. Elev Updated Type
                   

Watches & Warnings

Winter Weather Advisory
Issued: 12:13 PM CST Feb. 14, 2016 – National Weather Service

... Winter Weather Advisory remains in effect until 6 PM CST this
evening...

* short term trends... light snow will continue to taper off and
has already ended across much of north central Iowa. Some
blowing snow continues to reduce visibilities especially in open
areas.

* Storm total snow accumulations... 2 to 5 inches.

* Winds/visibility... southeast at 10 to 20 mph with gusts to 25
mph diminishing by late afternoon. Visibilities as low as one
mile or less at times due to blowing snow.

* Impacts... roads remain partially to completely snow-covered and
slick... with limited visibilities due to blowing and drifting
snow.

Precautionary/preparedness actions...

Be prepared for snow covered roads and limited visibilities... and
use caution while driving.

Any reports of snow accumulations are much appreciated and can be
relayed directly to the National Weather Service using twitter
handle NWS Des Moines... hashtag nwsdmx or Post to the NWS Des
Moines facebook Page.



Mjb